createdAt,value
2022-12-19T00:01:32.611Z,2.67
2022-12-19T00:04:10.053Z,3.65
2022-12-19T00:06:44.036Z,3.13
2022-12-19T00:09:18.518Z,2.45
2022-12-19T00:11:49.230Z,3.83
2022-12-19T00:14:20.288Z,3.03
2022-12-19T00:16:52.209Z,3.43
2022-12-19T00:19:20.433Z,3.22
2022-12-19T00:21:51.422Z,2.90
2022-12-19T00:24:22.926Z,3.30
2022-12-19T00:26:50.639Z,3.58
2022-12-19T00:29:20.393Z,3.42
2022-12-19T00:31:48.683Z,3.42
2022-12-19T00:34:16.309Z,3.58
2022-12-19T00:36:44.310Z,3.42
2022-12-19T00:39:11.994Z,3.25
2022-12-19T00:41:41.970Z,2.92
2022-12-19T00:44:17.125Z,4.30
2022-12-19T00:46:49.255Z,2.60
2022-12-19T00:49:21.699Z,2.92
2022-12-19T00:51:49.687Z,3.28
2022-12-19T00:54:17.334Z,3.22
2022-12-19T00:56:45.114Z,2.58
2022-12-19T00:59:12.668Z,3.38
2022-12-19T01:01:44.009Z,3.60
2022-12-19T01:04:34.466Z,3.17
2022-12-19T01:07:09.442Z,4.40
2022-12-19T01:09:38.399Z,2.97
2022-12-19T01:12:25.333Z,4.80
2022-12-19T01:15:05.433Z,3.40
2022-12-19T01:17:43.761Z,3.83
2022-12-19T01:20:26.339Z,3.42
2022-12-19T01:23:00.014Z,2.78
2022-12-19T01:25:28.686Z,4.10
2022-12-19T01:27:57.511Z,3.40
2022-12-19T01:30:26.068Z,3.13
2022-12-19T01:32:55.281Z,3.40
2022-12-19T01:35:25.440Z,4.28
2022-12-19T01:38:07.960Z,5.45
2022-12-19T01:40:38.050Z,5.50
2022-12-19T01:43:06.558Z,6.78
2022-12-19T01:45:38.368Z,12.63
2022-12-19T01:51:26.926Z,8.48
2022-12-19T01:53:59.308Z,6.20
2022-12-19T01:56:42.819Z,8.82
2022-12-19T01:59:17.175Z,6.20
2022-12-19T02:01:51.108Z,5.60
2022-12-19T02:04:39.733Z,5.80
2022-12-19T02:07:17.779Z,6.70
2022-12-19T02:09:57.745Z,8.63
2022-12-19T02:12:40.819Z,6.25
2022-12-19T02:15:19.368Z,7.50
2022-12-19T02:18:00.467Z,7.00
2022-12-19T02:20:51.685Z,5.63
2022-12-19T02:23:29.365Z,5.38
2022-12-19T02:26:05.084Z,5.45
2022-12-19T02:29:05.687Z,4.80
2022-12-19T02:31:45.764Z,5.38
2022-12-19T02:34:34.279Z,4.57
2022-12-19T02:37:11.175Z,6.70
2022-12-19T02:39:51.362Z,4.47
2022-12-19T02:42:28.815Z,5.22
2022-12-19T02:45:03.699Z,4.15
2022-12-19T02:47:34.675Z,4.10
2022-12-19T02:50:04.901Z,3.92
2022-12-19T02:52:33.073Z,5.13
2022-12-19T02:55:06.789Z,5.25
2022-12-19T02:58:09.289Z,4.15
2022-12-19T03:00:49.523Z,5.07
2022-12-19T03:03:38.567Z,3.92
2022-12-19T03:06:17.380Z,4.13
2022-12-19T03:08:52.654Z,4.90
2022-12-19T03:11:23.620Z,5.05
2022-12-19T03:13:58.979Z,5.05
2022-12-19T03:16:27.387Z,4.65
2022-12-19T03:18:56.501Z,3.80
2022-12-19T03:21:33.024Z,5.90
2022-12-19T03:24:02.072Z,3.88
2022-12-19T03:26:36.874Z,4.30
2022-12-19T03:29:15.135Z,4.97
2022-12-19T03:31:44.608Z,5.05
2022-12-19T03:34:19.180Z,4.65
2022-12-19T03:36:53.009Z,5.53
2022-12-19T03:39:22.455Z,4.30
2022-12-19T03:42:10.330Z,4.95
2022-12-19T03:44:41.533Z,5.22
2022-12-19T03:47:13.571Z,4.20
2022-12-19T03:49:41.709Z,4.32
2022-12-19T03:52:27.367Z,3.72
2022-12-19T03:55:18.846Z,2.92
2022-12-19T03:58:15.476Z,4.15
2022-12-19T04:00:47.728Z,4.15
2022-12-19T04:03:17.929Z,5.15
2022-12-19T04:05:48.299Z,4.07
2022-12-19T04:08:17.036Z,3.70
2022-12-19T04:10:49.532Z,3.47
2022-12-19T04:13:23.609Z,11.73
2022-12-19T04:16:25.161Z,7.60
2022-12-19T04:19:01.442Z,6.50
2022-12-19T04:21:35.830Z,6.65
2022-12-19T04:24:11.548Z,4.57
2022-12-19T04:26:44.800Z,7.63
2022-12-19T04:29:14.527Z,10.40
2022-12-19T04:31:44.195Z,9.25
2022-12-19T04:34:12.087Z,11.73
2022-12-19T04:36:39.948Z,14.52
2022-12-19T04:39:07.922Z,11.60
2022-12-19T04:41:35.735Z,10.32
2022-12-19T04:44:03.519Z,8.90
2022-12-19T04:46:31.285Z,6.20
2022-12-19T04:48:59.000Z,9.10
2022-12-19T04:51:26.886Z,9.80
2022-12-19T04:53:54.614Z,8.95
2022-12-19T04:56:22.618Z,6.43
2022-12-19T04:58:50.417Z,8.15
2022-12-19T05:01:18.970Z,5.75
2022-12-19T05:03:51.304Z,6.65
2022-12-19T05:06:23.268Z,6.50
2022-12-19T05:08:51.048Z,6.13
2022-12-19T05:11:19.862Z,7.75
2022-12-19T05:13:50.207Z,8.23
2022-12-19T05:16:18.779Z,6.60
2022-12-19T05:18:47.103Z,7.30
2022-12-19T05:21:14.879Z,6.28
2022-12-19T05:23:42.687Z,7.28
2022-12-19T05:26:12.598Z,8.98
2022-12-19T05:28:40.476Z,5.88
2022-12-19T05:31:12.320Z,7.03
2022-12-19T05:33:41.051Z,7.07
2022-12-19T05:36:10.085Z,7.47
2022-12-19T05:38:38.311Z,8.18
2022-12-19T05:41:11.703Z,9.18
2022-12-19T05:43:39.837Z,6.90
2022-12-19T05:46:08.430Z,7.65
2022-12-19T05:48:37.004Z,4.25
2022-12-19T05:51:05.026Z,8.75
2022-12-19T05:53:33.150Z,5.95
2022-12-19T05:56:15.043Z,9.13
2022-12-19T05:58:43.827Z,7.22
2022-12-19T06:01:19.629Z,7.63
2022-12-19T06:03:48.257Z,9.13
2022-12-19T06:06:19.853Z,8.93
2022-12-19T06:08:47.860Z,9.57
2022-12-19T06:11:15.877Z,7.43
2022-12-19T06:13:43.747Z,8.77
2022-12-19T06:16:14.343Z,7.13
2022-12-19T06:18:45.067Z,7.45
2022-12-19T06:21:15.716Z,7.85
2022-12-19T06:23:44.263Z,9.57
2022-12-19T06:26:18.959Z,5.65
2022-12-19T06:28:52.618Z,8.48
2022-12-19T06:31:21.852Z,8.20
2022-12-19T06:33:49.971Z,9.63
2022-12-19T06:36:21.748Z,8.07
2022-12-19T06:38:50.996Z,7.00
2022-12-19T06:41:37.865Z,6.47
2022-12-19T06:44:08.055Z,6.57
2022-12-19T06:46:37.365Z,6.43
2022-12-19T06:49:05.667Z,6.03
2022-12-19T06:51:33.944Z,6.10
2022-12-19T06:54:01.681Z,6.63
2022-12-19T06:56:29.548Z,4.95
2022-12-19T06:58:57.463Z,6.80
2022-12-19T07:01:40.604Z,7.68
2022-12-19T07:04:12.135Z,11.30
2022-12-19T07:06:43.326Z,6.80
2022-12-19T07:11:41.702Z,6.85
2022-12-19T07:14:10.203Z,6.32
2022-12-19T07:16:39.040Z,8.75
2022-12-19T07:19:09.149Z,6.68
2022-12-19T07:21:37.329Z,6.97
2022-12-19T07:24:06.010Z,5.60
2022-12-19T07:26:33.881Z,4.75
2022-12-19T07:29:02.008Z,5.82
2022-12-19T07:31:29.745Z,5.38
2022-12-19T07:33:58.302Z,2.97
2022-12-19T07:36:26.039Z,4.53
2022-12-19T07:38:53.852Z,2.83
2022-12-19T07:41:21.718Z,3.10
2022-12-19T07:43:49.536Z,4.45
2022-12-19T07:46:17.323Z,3.00
2022-12-19T07:48:45.168Z,3.00
2022-12-19T07:51:12.932Z,2.45
2022-12-19T07:53:40.737Z,2.70
2022-12-19T07:56:08.941Z,3.08
2022-12-19T07:58:36.783Z,2.88
2022-12-19T08:01:04.727Z,2.58
2022-12-19T08:03:33.745Z,3.63
2022-12-19T08:06:03.212Z,2.80
2022-12-19T08:08:31.185Z,2.85
2022-12-19T08:11:10.247Z,3.00
2022-12-19T08:13:41.017Z,2.72
2022-12-19T08:16:14.088Z,2.90
2022-12-19T08:18:41.910Z,4.93
2022-12-19T08:21:10.739Z,3.50
2022-12-19T08:23:41.516Z,2.88
2022-12-19T08:26:25.547Z,2.75
2022-12-19T08:28:58.219Z,2.50
2022-12-19T08:31:28.094Z,2.35
2022-12-19T08:33:57.372Z,3.15
2022-12-19T08:36:25.572Z,1.92
2022-12-19T08:38:55.648Z,2.45
2022-12-19T08:41:24.021Z,5.15
2022-12-19T08:43:53.700Z,3.83
2022-12-19T08:46:22.546Z,3.35
2022-12-19T08:48:51.112Z,2.88
2022-12-19T08:51:19.820Z,3.40
2022-12-19T08:53:48.101Z,2.53
2022-12-19T08:56:22.017Z,2.45
2022-12-19T09:01:24.238Z,2.45
2022-12-19T09:05:00.720Z,5.07
2022-12-19T09:06:40.181Z,4.05
2022-12-19T09:09:07.783Z,3.42
2022-12-19T09:11:36.196Z,2.28
2022-12-19T09:14:08.782Z,2.28
2022-12-19T09:16:36.509Z,2.95
2022-12-19T09:19:04.318Z,3.20
2022-12-19T09:21:32.035Z,2.20
2022-12-19T09:24:07.429Z,2.83
2022-12-19T09:26:41.146Z,3.00
2022-12-19T09:29:19.537Z,3.30
2022-12-19T09:31:47.951Z,3.10
2022-12-19T09:34:19.056Z,3.92
2022-12-19T09:36:49.607Z,3.20
2022-12-19T09:39:18.779Z,3.20
2022-12-19T09:41:55.537Z,3.30
2022-12-19T09:44:37.317Z,3.33
2022-12-19T09:47:21.382Z,3.50
2022-12-19T09:49:49.593Z,3.67
2022-12-19T09:52:35.460Z,3.70
2022-12-19T09:55:18.162Z,2.28
2022-12-19T09:58:10.388Z,3.58
2022-12-19T10:00:45.889Z,2.17
2022-12-19T10:03:32.311Z,2.45
2022-12-19T10:07:16.033Z,2.60
2022-12-19T10:10:46.350Z,3.03
2022-12-19T10:12:45.911Z,2.67
2022-12-19T10:15:18.641Z,2.80
2022-12-19T10:18:06.528Z,3.35
2022-12-19T10:20:38.909Z,3.22
2022-12-19T10:23:43.592Z,2.22
2022-12-19T10:26:18.331Z,2.42
2022-12-19T10:29:06.031Z,2.75
2022-12-19T10:31:45.578Z,3.42
2022-12-19T10:34:23.110Z,3.95
2022-12-19T10:37:28.738Z,2.72
2022-12-19T10:39:46.625Z,2.45
2022-12-19T10:42:32.518Z,3.08
2022-12-19T10:45:06.614Z,3.38
2022-12-19T10:47:34.425Z,3.05
2022-12-19T10:50:09.008Z,2.83
2022-12-19T10:52:52.614Z,2.85
2022-12-19T10:55:38.524Z,4.25
2022-12-19T10:58:28.552Z,4.50
2022-12-19T11:01:14.565Z,3.75
2022-12-19T11:03:46.546Z,2.95
2022-12-19T11:06:42.370Z,2.63
2022-12-19T11:09:37.072Z,3.25
2022-12-19T11:16:22.141Z,4.15
2022-12-19T11:20:48.208Z,2.42
2022-12-19T11:22:08.810Z,4.07
2022-12-19T11:29:32.002Z,3.38
2022-12-19T11:29:55.171Z,3.45
2022-12-19T11:30:46.430Z,3.63
2022-12-19T11:32:44.833Z,4.68
2022-12-19T11:35:36.602Z,3.47
2022-12-19T11:38:08.668Z,3.30
2022-12-19T11:40:51.139Z,3.35
2022-12-19T11:43:47.232Z,4.07
2022-12-19T11:46:44.069Z,3.40
2022-12-19T11:49:35.767Z,4.00
2022-12-19T11:55:23.109Z,4.07
2022-12-19T11:57:50.996Z,5.28
2022-12-19T12:00:22.362Z,4.50
2022-12-19T12:02:56.031Z,4.47
2022-12-19T12:05:23.778Z,4.45
2022-12-19T12:08:25.457Z,4.03
2022-12-19T12:16:01.773Z,6.45
2022-12-19T12:24:56.231Z,4.75
2022-12-19T12:28:47.951Z,3.72
2022-12-19T12:31:08.850Z,4.97
2022-12-19T12:31:17.245Z,4.40
2022-12-19T12:31:47.317Z,3.53
2022-12-19T12:31:50.787Z,4.85
2022-12-19T12:35:46.742Z,6.22
2022-12-19T12:38:50.449Z,5.72
2022-12-19T12:42:04.443Z,7.00
2022-12-19T12:44:45.502Z,6.32
2022-12-19T12:47:26.035Z,4.80
2022-12-19T12:50:07.074Z,5.13
2022-12-19T12:52:39.527Z,5.00
2022-12-19T12:55:20.081Z,5.40
2022-12-19T12:57:47.847Z,4.80
2022-12-19T13:00:20.944Z,3.88
2022-12-19T13:03:11.518Z,4.60
2022-12-19T13:05:44.159Z,4.70
2022-12-19T13:08:44.338Z,5.07
2022-12-19T13:11:11.922Z,4.53
2022-12-19T13:13:56.299Z,5.13
2022-12-19T13:16:43.690Z,5.43
2022-12-19T13:19:34.394Z,4.50
2022-12-19T13:22:05.222Z,4.50
2022-12-19T13:25:02.432Z,4.70
2022-12-19T13:27:38.082Z,4.97
2022-12-19T13:30:12.843Z,5.03
2022-12-19T13:32:40.530Z,3.88
2022-12-19T13:35:48.733Z,3.97
2022-12-19T13:39:59.188Z,5.07
2022-12-19T13:40:56.079Z,4.10
2022-12-19T13:43:48.643Z,3.58
2022-12-19T13:46:42.907Z,4.13
2022-12-19T13:49:10.640Z,4.20
2022-12-19T13:51:50.620Z,6.30
2022-12-19T13:54:27.578Z,4.25
2022-12-19T13:56:57.221Z,4.55
2022-12-19T13:59:29.435Z,2.92
2022-12-19T14:02:17.300Z,4.18
2022-12-19T14:04:45.950Z,4.28
2022-12-19T14:07:36.211Z,5.88
2022-12-19T14:11:34.885Z,5.57
2022-12-19T14:13:57.486Z,7.45
2022-12-19T14:16:20.148Z,4.30
2022-12-19T14:18:50.058Z,4.85
2022-12-19T14:22:04.511Z,5.65
2022-12-19T14:24:22.240Z,4.75
2022-12-19T14:28:19.305Z,4.32
2022-12-19T14:30:26.806Z,4.68
2022-12-19T14:33:45.481Z,3.35
2022-12-19T14:36:08.881Z,4.50
2022-12-19T14:39:27.456Z,4.47
2022-12-19T14:41:48.122Z,3.63
2022-12-19T14:53:08.571Z,5.28
2022-12-19T14:53:34.303Z,5.13
2022-12-19T14:54:16.796Z,3.58
2022-12-19T14:54:29.065Z,5.72
2022-12-19T14:56:16.946Z,4.30
2022-12-19T14:58:56.240Z,4.32
2022-12-19T15:01:29.950Z,3.95
2022-12-19T15:04:50.876Z,5.18
2022-12-19T15:07:09.860Z,5.03
2022-12-19T15:10:58.188Z,4.72
2022-12-19T15:14:52.682Z,4.13
2022-12-19T15:16:32.344Z,4.85
2022-12-19T15:19:02.083Z,4.28
2022-12-19T15:21:31.282Z,5.00
2022-12-19T15:23:59.190Z,6.03
2022-12-19T15:26:29.002Z,4.70
2022-12-19T15:29:00.385Z,4.00
2022-12-19T15:31:41.637Z,4.03
2022-12-19T15:34:38.047Z,3.97
2022-12-19T15:37:10.634Z,4.55
2022-12-19T15:39:38.404Z,3.72
2022-12-19T15:42:15.780Z,4.32
2022-12-19T15:44:44.888Z,5.53
2022-12-19T15:47:23.598Z,3.42
2022-12-19T15:49:51.338Z,3.53
2022-12-19T15:52:20.847Z,7.43
2022-12-19T15:54:50.531Z,4.70
2022-12-19T15:57:21.976Z,4.85
2022-12-19T15:59:50.031Z,5.28
2022-12-19T16:02:23.536Z,2.85
2022-12-19T16:05:01.542Z,2.75
2022-12-19T16:07:48.136Z,2.58
2022-12-19T16:10:18.845Z,2.83
2022-12-19T16:12:56.091Z,2.83
2022-12-19T16:15:32.423Z,2.30
2022-12-19T16:18:04.412Z,2.15
2022-12-19T16:20:39.767Z,2.80
2022-12-19T16:23:08.339Z,2.05
2022-12-19T16:25:41.110Z,2.70
2022-12-19T16:32:24.746Z,2.10
2022-12-19T16:37:32.033Z,2.65
2022-12-19T16:40:00.124Z,1.65
2022-12-19T16:42:32.594Z,1.80
2022-12-19T16:45:01.063Z,1.83
2022-12-19T16:47:29.032Z,2.55
2022-12-19T16:49:57.961Z,1.67
2022-12-19T16:52:25.963Z,3.67
2022-12-19T16:55:05.469Z,1.70
2022-12-19T16:57:33.771Z,2.00
2022-12-19T17:00:01.561Z,4.90
2022-12-19T17:02:43.863Z,2.15
2022-12-19T17:05:23.447Z,2.22
2022-12-19T17:07:51.924Z,1.80
2022-12-19T17:10:26.153Z,2.00
2022-12-19T17:12:55.849Z,1.95
2022-12-19T17:15:34.095Z,2.55
2022-12-19T17:18:18.151Z,2.30
2022-12-19T17:20:46.606Z,1.95
2022-12-19T17:23:25.539Z,3.45
2022-12-19T17:25:57.662Z,2.97
2022-12-19T17:28:28.572Z,4.07
2022-12-19T17:31:00.038Z,3.08
2022-12-19T17:33:34.889Z,2.70
2022-12-19T17:36:21.405Z,2.20
2022-12-19T17:38:53.134Z,3.35
2022-12-19T17:41:21.228Z,2.80
2022-12-19T17:44:24.951Z,4.38
2022-12-19T17:46:55.500Z,3.20
2022-12-19T17:49:32.169Z,2.83
2022-12-19T17:52:04.630Z,2.92
2022-12-19T17:54:33.089Z,4.43
2022-12-19T17:57:01.247Z,2.97
2022-12-19T17:59:30.052Z,2.25
2022-12-19T18:01:59.402Z,2.70
2022-12-19T18:04:28.923Z,5.60
2022-12-19T18:06:56.851Z,3.60
2022-12-19T18:09:25.648Z,3.63
2022-12-19T18:11:53.984Z,3.72
2022-12-19T18:14:22.269Z,4.03
2022-12-19T18:16:51.347Z,2.72
2022-12-19T18:19:30.445Z,2.75
2022-12-19T18:26:18.281Z,2.55
2022-12-19T18:28:45.983Z,2.75
2022-12-19T18:31:26.585Z,2.95
2022-12-19T18:34:02.073Z,2.78
2022-12-19T18:36:42.603Z,2.65
2022-12-19T18:39:25.546Z,3.50
2022-12-19T18:41:54.666Z,3.50
2022-12-19T18:44:24.141Z,2.45
2022-12-19T18:46:53.798Z,2.80
2022-12-19T18:49:23.642Z,3.55
2022-12-19T18:51:52.474Z,2.90
2022-12-19T18:54:22.631Z,2.08
2022-12-19T18:56:51.905Z,2.78
2022-12-19T18:59:20.346Z,3.45
2022-12-19T19:01:48.332Z,2.50
2022-12-19T19:04:18.459Z,3.88
2022-12-19T19:06:51.501Z,3.85
2022-12-19T19:09:22.865Z,3.78
2022-12-19T19:11:56.349Z,3.95
2022-12-19T19:14:24.197Z,3.40
2022-12-19T19:16:56.497Z,2.53
2022-12-19T19:19:25.827Z,3.83
2022-12-19T19:21:55.725Z,4.00
2022-12-19T19:24:27.513Z,4.45
2022-12-19T19:26:59.200Z,3.90
2022-12-19T19:29:26.918Z,3.78
2022-12-19T19:31:56.100Z,3.58
2022-12-19T19:34:31.725Z,3.60
2022-12-19T19:37:04.500Z,3.42
2022-12-19T19:39:34.924Z,3.35
2022-12-19T19:42:03.189Z,3.60
2022-12-19T19:44:33.003Z,3.80
2022-12-19T19:47:01.170Z,2.60
2022-12-19T19:49:30.101Z,3.67
2022-12-19T19:52:02.474Z,2.58
2022-12-19T19:54:32.275Z,3.28
2022-12-19T19:57:00.593Z,3.10
2022-12-19T19:59:31.695Z,3.42
2022-12-19T20:02:09.695Z,2.47
2022-12-19T20:04:38.625Z,4.80
2022-12-19T20:07:11.841Z,3.10
2022-12-19T20:09:51.605Z,3.83
2022-12-19T20:12:24.359Z,2.80
2022-12-19T20:14:56.751Z,3.25
2022-12-19T20:17:29.972Z,3.47
2022-12-19T20:19:59.031Z,2.60
2022-12-19T20:22:26.863Z,3.55
2022-12-19T20:24:54.879Z,2.38
2022-12-19T20:27:26.472Z,3.35
2022-12-19T20:29:54.112Z,2.40
2022-12-19T20:32:34.350Z,3.35
2022-12-19T20:35:10.679Z,2.55
2022-12-19T20:37:46.955Z,3.22
2022-12-19T20:40:17.936Z,2.83
2022-12-19T20:42:45.609Z,2.78
2022-12-19T20:45:18.085Z,4.00
2022-12-19T20:47:56.603Z,3.60
2022-12-19T20:50:24.522Z,3.50
2022-12-19T20:52:54.165Z,4.55
2022-12-19T20:55:22.806Z,3.33
2022-12-19T20:57:51.088Z,3.35
2022-12-19T21:00:22.666Z,4.45
2022-12-19T21:03:26.606Z,4.72
2022-12-19T21:05:39.985Z,2.97
2022-12-19T21:08:07.874Z,4.10
2022-12-19T21:10:36.653Z,3.10
2022-12-19T21:13:05.224Z,3.35
2022-12-19T21:15:34.714Z,3.58
2022-12-19T21:18:03.729Z,2.90
2022-12-19T21:20:34.645Z,2.80
2022-12-19T21:23:03.573Z,3.38
2022-12-19T21:25:31.491Z,3.08
2022-12-19T21:27:59.714Z,3.70
2022-12-19T21:30:28.262Z,2.08
2022-12-19T21:32:56.292Z,3.60
2022-12-19T21:35:25.200Z,3.78
2022-12-19T21:37:56.613Z,2.65
2022-12-19T21:40:25.384Z,2.30
2022-12-19T21:42:52.907Z,3.22
2022-12-19T21:45:20.588Z,3.15
2022-12-19T21:47:49.063Z,4.45
2022-12-19T21:50:16.633Z,3.67
2022-12-19T21:52:44.851Z,4.32
2022-12-19T21:55:12.345Z,5.60
2022-12-19T21:57:41.386Z,4.75
2022-12-19T22:00:12.339Z,4.78
2022-12-19T22:02:50.589Z,5.63
2022-12-19T22:05:27.583Z,5.32
2022-12-19T22:07:55.283Z,5.25
2022-12-19T22:10:22.938Z,5.05
2022-12-19T22:12:51.226Z,4.25
2022-12-19T22:15:19.033Z,3.38
2022-12-19T22:17:46.673Z,4.32
2022-12-19T22:20:15.909Z,4.72
2022-12-19T22:22:43.452Z,4.10
2022-12-19T22:25:11.129Z,4.43
2022-12-19T22:27:38.882Z,3.22
2022-12-19T22:30:11.134Z,3.35
2022-12-19T22:32:41.858Z,5.43
2022-12-19T22:35:11.053Z,4.85
2022-12-19T22:37:38.700Z,4.03
2022-12-19T22:42:52.633Z,4.95
2022-12-19T22:45:24.377Z,5.65
2022-12-19T22:47:59.968Z,3.75
2022-12-19T22:50:27.846Z,3.35
2022-12-19T22:52:59.586Z,2.80
2022-12-19T22:55:30.565Z,4.57
2022-12-19T22:58:00.281Z,3.80
2022-12-19T23:00:30.072Z,4.95
2022-12-19T23:03:00.058Z,4.13
2022-12-19T23:05:34.823Z,4.38
2022-12-19T23:08:04.046Z,4.80
2022-12-19T23:10:34.743Z,2.83
2022-12-19T23:13:11.631Z,4.07
2022-12-19T23:15:46.330Z,4.15
2022-12-19T23:18:18.168Z,4.63
2022-12-19T23:21:09.791Z,3.90
2022-12-19T23:23:52.709Z,4.82
2022-12-19T23:29:16.458Z,4.97
2022-12-19T23:31:54.557Z,4.20
2022-12-19T23:34:27.060Z,4.32
2022-12-19T23:37:11.941Z,4.40
2022-12-19T23:39:47.545Z,5.20
2022-12-19T23:44:53.608Z,3.20
2022-12-19T23:47:28.495Z,3.25
2022-12-19T23:49:57.293Z,4.35
2022-12-19T23:52:31.786Z,3.47
2022-12-19T23:55:09.612Z,3.88
2022-12-19T23:57:38.889Z,3.47
